Athol Springs, New York
Current Conditions -  °F | °C
As of 9:54 PM on Friday 21 Nov 2014 (Local Time) from KBUF Reporting Station
Light Snow Light Snow  
Wind Chill: 12°   Ceiling: 2300
Heat Index: 24°   Visibility: 9mi
Dew Point: 14°   Wind: 13mph
Humidity: 65%   Direction: 210°SSW
Pressure: 30.39"   Gusts: NA
Location:  42.77°N, 78.87°W
Report Text: KBUF 220254Z 21011KT 9SM -SN OVC023 M04/M10 A3039 RMK AO2 SLP305 P0000 60000 T10441100 58010
Loading
Personal Weather Stations






























Interactive Weather Map New forecast layout! Learn more

10-Day Weather Forecast

Advertisements
Track Severe Weather on mobile